메인 페이지
METAR-TAF:

METAR-TAF

공항 :

샤아마나트 국제공항

치타공, 방글라데시

위도: 22-16N, 경도: 091-49E, 고도: 4m

현재 날씨관측

예보는 38분 전, 08:00시(UTC)에 발표되었습니다.
5kt
온도 30°C
습도 75%
기압 1008 hPa
시정: 5000m
고도 1800ft 상공 구름 보통
고도 10000ft 상공 구름 많음
연무

METAR: VGEG 100800Z 18005KT 5000 HZ SCT018 BKN100 30/25 Q1008 NOSIG

시각: 14:38 (08:38 UTC)

예보

예보는 3 시간 38분 전, 05:00시(UTC)에 발표되었습니다.
예보 대상 시간: 10일 06시부터 11일 12시까지 (UTC)
남서10kt
시정: 4500m
고도 1800ft 상공 구름 보통
연무
전환 중
10일 12시부터 10일 14시까지 (UTC)
서남서6kt
시정: 4000m
고도 1600ft 상공 구름 보통
고도 10000ft 상공 구름 많음
연무
일시적
10일 18시부터 11일 02시까지 (UTC)
서북서15kt
시정: 2000m
고도 700ft 상공 구름 보통
고도 2500ft 상공 구름 조금, 적란운.
고도 9000ft 상공 구름 많음
전환 중
11일 04시부터 11일 06시까지 (UTC)
남서12kt
시정: 5000m
고도 1800ft 상공 구름 조금
연무

TAF: VGEG 100500Z 1006/1112 23010KT 4500 HZ SCT018 BECMG 1012/1014 25006KT 4000 HZ SCT016 BKN100 TEMPO 1018/1102 29015KT 2000 RA/TSRA SCT007 FEW025CB BKN090 BECMG 1104/1106 23012KT 5000 HZ FEW018

4,000개 이상의 공항 관측 자료 및 예보 (METAR 및 TAF 보고).

지도상에서 검색 가능한 기상관측소가 노란 점과 빨간 점으로 표시되어 있습니다.

기상관측소 명을 보려면 표시 위로 마우스를 이동하세요.

날씨 관측과 예보를 보려면 클릭하세요.

지도 변경 : 확대하려면 엑스 표시가 있는 녹색 버튼, 축소하려면 빼기 표시가 있는 녹색 버튼, 다음 페이지의 지도를 보려면 녹색 화살표를 클릭하세요.


METAR-TAF: